Time;durP1;ratioP1;P1;durP2;ratioP2;P2;SDS_P1;SDS_P2;PMS_P1;PMS_P2;Temp;Humidity;BMP_temperature;BMP_pressure;BME280_temperature;BME280_humidity;BME280_pressure;Samples;Min_cycle;Max_cycle;Signal;HPM_P1;HPM_P2
2021/05/22 00:00:28;;;;;;;4.70;1.35;;;14.10;75.90;;;;;;4991634;28;20027;-68
2021/05/22 00:02:54;;;;;;;7.97;1.40;;;14.00;76.10;;;;;;4993393;28;20034;-68
2021/05/22 00:05:20;;;;;;;6.30;1.42;;;14.00;76.30;;;;;;4991789;28;20049;-69
2021/05/22 00:07:45;;;;;;;3.35;1.20;;;14.00;76.00;;;;;;4990344;28;20066;-69
2021/05/22 00:10:12;;;;;;;4.95;1.20;;;14.00;75.80;;;;;;4991338;28;20034;-69
2021/05/22 00:12:43;;;;;;;4.30;1.10;;;14.10;76.20;;;;;;4991066;28;20031;-69
2021/05/22 00:15:12;;;;;;;7.85;1.27;;;14.10;76.00;;;;;;4991621;28;20038;-69
2021/05/22 00:17:38;;;;;;;6.82;1.40;;;14.10;75.80;;;;;;4993359;28;20018;-70
2021/05/22 00:20:06;;;;;;;3.90;0.90;;;14.10;76.00;;;;;;4991227;28;20062;-70
2021/05/22 00:22:31;;;;;;;3.63;0.60;;;14.10;75.80;;;;;;4991230;28;20038;-68
2021/05/22 00:24:57;;;;;;;5.65;1.40;;;14.20;76.70;;;;;;4991092;28;20378;-69
2021/05/22 00:27:23;;;;;;;4.70;1.02;;;14.10;75.80;;;;;;4991015;28;20042;-68
2021/05/22 00:29:48;;;;;;;3.22;0.90;;;14.10;75.90;;;;;;4992429;28;20034;-69
2021/05/22 00:32:14;;;;;;;2.67;0.70;;;14.10;76.00;;;;;;4973757;28;20058;-68
2021/05/22 00:34:40;;;;;;;4.63;1.05;;;14.10;76.00;;;;;;4990846;28;20118;-69
2021/05/22 00:37:05;;;;;;;8.57;1.13;;;14.10;75.90;;;;;;4990998;28;20125;-68
2021/05/22 00:39:31;;;;;;;7.72;1.13;;;14.10;76.30;;;;;;4990915;28;20380;-69
2021/05/22 00:41:58;;;;;;;7.88;1.15;;;14.10;76.20;;;;;;4991080;28;20027;-69
2021/05/22 00:44:30;;;;;;;6.68;0.95;;;14.00;75.90;;;;;;4990949;28;20062;-69
2021/05/22 00:46:56;;;;;;;8.00;1.15;;;14.10;75.60;;;;;;4990392;28;20027;-68
2021/05/22 00:49:21;;;;;;;6.25;1.05;;;14.10;75.70;;;;;;4990622;28;20049;-70
2021/05/22 00:51:47;;;;;;;4.55;1.02;;;14.10;75.60;;;;;;4990762;28;20031;-69
2021/05/22 00:54:13;;;;;;;4.68;0.90;;;14.10;75.60;;;;;;4990307;28;20030;-69
2021/05/22 00:56:39;;;;;;;6.05;1.13;;;14.00;75.90;;;;;;4992167;28;20058;-70
2021/05/22 00:59:04;;;;;;;5.20;0.93;;;14.00;76.00;;;;;;4990657;28;20061;-69
2021/05/22 01:01:30;;;;;;;8.48;1.52;;;14.00;76.30;;;;;;4990354;28;20046;-70
2021/05/22 01:03:56;;;;;;;9.18;1.02;;;14.00;76.60;;;;;;4972846;28;20026;-70
2021/05/22 01:06:22;;;;;;;7.95;0.98;;;13.90;76.90;;;;;;4989721;28;20494;-69
2021/05/22 01:08:50;;;;;;;4.15;0.77;;;13.80;77.40;;;;;;4992254;28;20022;-70
2021/05/22 01:11:41;;;;;;;3.05;0.82;;;13.80;77.50;;;;;;4990435;28;20123;-69
2021/05/22 01:14:20;;;;;;;7.60;1.10;;;13.70;77.60;;;;;;4973032;28;20038;-70
2021/05/22 01:16:48;;;;;;;4.70;0.70;;;13.70;78.70;;;;;;4990281;28;20074;-68
2021/05/22 01:19:36;;;;;;;3.38;0.88;;;13.60;78.40;;;;;;4972563;28;20371;-69
2021/05/22 01:22:02;;;;;;;6.60;1.02;;;13.60;78.20;;;;;;4990232;28;20026;-69
2021/05/22 01:24:30;;;;;;;7.68;1.15;;;13.60;78.70;;;;;;4990303;28;20039;-70
2021/05/22 01:26:56;;;;;;;2.97;0.95;;;13.60;78.80;;;;;;4991525;28;20030;-70
2021/05/22 01:29:22;;;;;;;3.22;0.90;;;13.60;79.10;;;;;;4973082;28;20044;-69
2021/05/22 01:31:49;;;;;;;3.38;1.00;;;13.60;79.00;;;;;;4990040;28;20243;-68
2021/05/22 01:34:14;;;;;;;4.93;1.33;;;13.50;79.20;;;;;;4989859;28;20045;-69
2021/05/22 01:36:40;;;;;;;8.55;1.27;;;13.50;79.50;;;;;;4989650;28;20035;-68
2021/05/22 01:39:06;;;;;;;11.95;2.17;;;13.50;79.80;;;;;;4989728;28;20034;-69
2021/05/22 01:41:32;;;;;;;6.07;1.10;;;13.50;79.70;;;;;;4991557;28;20105;-69
2021/05/22 01:44:02;;;;;;;4.05;0.85;;;13.40;79.70;;;;;;4990401;28;20035;-69
2021/05/22 01:46:30;;;;;;;6.70;0.90;;;13.40;80.20;;;;;;4989864;28;20494;-70
2021/05/22 01:48:58;;;;;;;8.10;1.05;;;13.40;80.00;;;;;;4989630;28;20100;-67
2021/05/22 01:51:25;;;;;;;4.78;1.00;;;13.40;80.00;;;;;;4989932;28;20483;-69
2021/05/22 01:53:51;;;;;;;4.05;0.93;;;13.40;80.10;;;;;;4991244;28;20019;-70
2021/05/22 01:56:19;;;;;;;5.38;1.05;;;13.40;80.30;;;;;;4993880;28;20089;-70
2021/05/22 01:58:45;;;;;;;4.00;0.90;;;13.40;80.40;;;;;;4976553;28;20050;-69
2021/05/22 02:01:12;;;;;;;3.05;0.80;;;13.40;80.30;;;;;;4993788;28;20379;-69
2021/05/22 02:03:46;;;;;;;6.15;0.98;;;13.30;80.50;;;;;;4993668;28;20054;-69
2021/05/22 02:06:21;;;;;;;3.25;0.68;;;13.30;80.60;;;;;;4993530;28;20109;-70
2021/05/22 02:08:47;;;;;;;4.07;0.52;;;13.30;80.50;;;;;;4995303;28;20026;-70
2021/05/22 02:11:13;;;;;;;4.55;0.85;;;13.30;80.40;;;;;;4993399;28;20042;-69
2021/05/22 02:13:43;;;;;;;5.03;1.00;;;13.30;80.50;;;;;;4993607;28;20121;-70
2021/05/22 02:16:11;;;;;;;3.78;1.05;;;13.30;80.60;;;;;;4993758;28;20031;-70
2021/05/22 02:18:39;;;;;;;4.88;0.70;;;13.30;80.70;;;;;;4976173;28;20518;-69
2021/05/22 02:21:05;;;;;;;;;;;13.20;80.70;;;;;;4993751;28;20038;-69
2021/05/22 02:23:34;;;;;;;4.10;1.33;;;13.20;80.90;;;;;;4977538;28;19975;-69
2021/05/22 02:25:59;;;;;;;2.22;0.57;;;13.10;81.40;;;;;;4993282;28;20045;-69
2021/05/22 02:28:31;;;;;;;2.88;0.73;;;13.10;80.80;;;;;;4993022;28;20046;-69
2021/05/22 02:30:58;;;;;;;3.03;0.60;;;13.10;80.90;;;;;;4993283;28;20042;-70
2021/05/22 02:33:24;;;;;;;4.75;0.93;;;13.10;80.90;;;;;;4976490;28;20522;-70
2021/05/22 02:35:54;;;;;;;4.25;0.77;;;13.10;81.00;;;;;;4994792;28;20030;-69
2021/05/22 02:38:24;;;;;;;4.70;1.00;;;13.00;81.10;;;;;;4993136;28;20587;-69
2021/05/22 02:40:53;;;;;;;2.72;0.70;;;13.20;81.10;;;;;;4993201;28;20110;-70
2021/05/22 02:43:20;;;;;;;2.03;0.75;;;13.00;81.00;;;;;;4992833;28;20038;-69
2021/05/22 02:45:46;;;;;;;7.53;0.70;;;13.10;81.10;;;;;;4992965;28;20026;-69
2021/05/22 02:48:18;;;;;;;6.03;0.70;;;13.00;81.10;;;;;;4993044;28;20030;-69
2021/05/22 02:50:47;;;;;;;4.80;1.17;;;13.00;81.50;;;;;;4977556;28;20022;-69
2021/05/22 02:53:16;;;;;;;3.42;1.08;;;13.00;81.50;;;;;;4993190;28;20336;-68
2021/05/22 02:55:43;;;;;;;4.03;0.82;;;13.00;81.30;;;;;;4992917;28;20053;-69
2021/05/22 02:58:10;;;;;;;1.70;0.65;;;13.00;81.50;;;;;;4992775;28;20050;-70
2021/05/22 03:00:36;;;;;;;1.08;0.65;;;13.00;82.00;;;;;;4992624;28;20034;-68
2021/05/22 03:03:02;;;;;;;2.72;0.68;;;12.90;82.10;;;;;;4992561;28;20452;-69
2021/05/22 03:05:30;;;;;;;3.92;0.50;;;12.90;82.20;;;;;;4993796;28;20044;-69
2021/05/22 03:07:56;;;;;;;3.77;0.87;;;12.90;82.50;;;;;;4991669;28;20038;-70
2021/05/22 03:10:22;;;;;;;3.95;0.80;;;12.90;82.40;;;;;;4991666;28;20275;-69
2021/05/22 03:12:48;;;;;;;5.85;1.23;;;12.90;83.00;;;;;;4992452;28;20026;-69
2021/05/22 03:15:14;;;;;;;6.50;1.05;;;12.90;82.60;;;;;;4992467;28;20023;-69
2021/05/22 03:17:39;;;;;;;2.00;0.65;;;12.80;83.90;;;;;;4993750;28;20053;-69
2021/05/22 03:20:07;;;;;;;1.45;0.68;;;12.80;83.10;;;;;;4992313;28;20081;-69
2021/05/22 03:22:33;;;;;;;5.72;0.85;;;12.80;83.60;;;;;;4975350;28;20053;-68
2021/05/22 03:24:58;;;;;;;3.67;1.00;;;12.80;83.80;;;;;;4992630;28;20066;-69
2021/05/22 03:27:24;;;;;;;3.08;1.15;;;12.70;83.90;;;;;;4992263;28;20080;-69
2021/05/22 03:29:50;;;;;;;3.03;1.05;;;12.70;84.10;;;;;;4993902;28;20285;-70
2021/05/22 03:32:15;;;;;;;3.75;1.00;;;12.70;84.20;;;;;;4992037;28;20092;-69
2021/05/22 03:34:42;;;;;;;5.28;1.08;;;12.70;84.40;;;;;;4991941;28;20113;-69
2021/05/22 03:37:08;;;;;;;3.25;0.85;;;12.70;84.70;;;;;;4991936;28;20414;-69
2021/05/22 03:39:34;;;;;;;5.88;1.05;;;12.70;85.00;;;;;;4991844;28;20031;-69
2021/05/22 03:41:59;;;;;;;3.97;0.85;;;12.70;85.00;;;;;;4991921;28;20050;-69
2021/05/22 03:44:25;;;;;;;4.00;0.80;;;12.60;85.10;;;;;;4992180;28;20019;-69
2021/05/22 03:46:51;;;;;;;5.95;0.98;;;12.60;85.30;;;;;;4992037;28;20050;-68
2021/05/22 03:49:17;;;;;;;3.65;0.95;;;12.60;85.70;;;;;;4991792;28;20360;-68
2021/05/22 03:51:43;;;;;;;5.38;0.95;;;12.50;85.70;;;;;;4991328;28;20041;-68
2021/05/22 03:54:09;;;;;;;5.63;0.90;;;12.60;85.80;;;;;;4991632;28;20411;-68
2021/05/22 03:56:34;;;;;;;3.50;0.85;;;12.60;86.10;;;;;;4993121;28;20111;-68
2021/05/22 03:59:00;;;;;;;5.47;0.93;;;12.50;86.10;;;;;;4991206;28;20043;-68
2021/05/22 04:01:26;;;;;;;4.43;0.95;;;12.50;86.30;;;;;;4991638;28;20042;-68
2021/05/22 04:03:52;;;;;;;3.55;0.65;;;12.50;87.10;;;;;;4990184;28;20080;-69
2021/05/22 04:06:17;;;;;;;3.13;0.82;;;12.50;86.70;;;;;;4991264;28;20177;-69
2021/05/22 04:08:43;;;;;;;2.72;0.60;;;12.50;86.80;;;;;;4992857;28;20046;-68
2021/05/22 04:11:08;;;;;;;5.10;0.95;;;12.50;86.80;;;;;;4990139;28;20042;-68
2021/05/22 04:13:34;;;;;;;5.47;0.88;;;12.50;87.10;;;;;;4991112;28;20057;-68
2021/05/22 04:16:00;;;;;;;2.70;0.47;;;12.50;87.00;;;;;;4991102;28;20491;-69
2021/05/22 04:18:25;;;;;;;4.18;0.80;;;12.50;87.20;;;;;;4990913;28;20041;-69
2021/05/22 04:20:51;;;;;;;3.65;0.90;;;12.50;87.40;;;;;;4992492;28;20353;-68
2021/05/22 04:23:17;;;;;;;7.28;0.90;;;12.50;87.50;;;;;;4991447;28;20383;-69
2021/05/22 04:25:43;;;;;;;3.17;0.65;;;12.50;87.50;;;;;;4991240;28;20042;-69
2021/05/22 04:28:10;;;;;;;7.80;1.05;;;12.50;87.70;;;;;;4990989;28;20042;-69
2021/05/22 04:30:35;;;;;;;6.07;1.20;;;12.50;88.10;;;;;;4991244;28;20145;-69
2021/05/22 04:33:01;;;;;;;7.20;1.05;;;12.50;88.20;;;;;;4991226;28;20430;-69
2021/05/22 04:35:27;;;;;;;6.35;1.00;;;12.50;88.40;;;;;;4992824;28;20026;-70
2021/05/22 04:37:53;;;;;;;4.28;0.82;;;12.50;88.70;;;;;;4991086;28;20357;-69
2021/05/22 04:40:19;;;;;;;3.15;0.73;;;12.50;88.50;;;;;;4990757;28;20148;-69
2021/05/22 04:42:44;;;;;;;2.75;0.77;;;12.50;88.40;;;;;;4990818;28;20121;-70
2021/05/22 04:45:10;;;;;;;8.23;0.90;;;12.50;88.60;;;;;;4990967;28;20018;-69
2021/05/22 04:47:38;;;;;;;12.32;1.33;;;12.50;88.80;;;;;;4992414;28;20486;-69
2021/05/22 04:50:06;;;;;;;3.20;0.70;;;12.50;88.90;;;;;;4990804;28;20467;-69
2021/05/22 04:52:32;;;;;;;5.93;0.90;;;12.50;88.90;;;;;;4991107;28;20042;-69
2021/05/22 04:54:58;;;;;;;5.95;0.95;;;12.60;89.20;;;;;;4990393;28;20030;-70
2021/05/22 04:57:24;;;;;;;5.47;0.70;;;12.60;89.10;;;;;;4990366;28;20050;-69
2021/05/22 04:59:49;;;;;;;4.15;1.02;;;12.60;88.90;;;;;;4992399;28;20015;-70
2021/05/22 05:02:15;;;;;;;6.45;1.00;;;12.70;88.90;;;;;;4990318;28;20112;-68
2021/05/22 05:04:41;;;;;;;5.47;1.20;;;12.70;88.60;;;;;;4990111;28;20042;-68
2021/05/22 05:07:06;;;;;;;3.58;0.73;;;12.70;88.80;;;;;;4990749;28;20478;-69
2021/05/22 05:09:34;;;;;;;4.10;0.70;;;12.70;88.60;;;;;;4990508;28;20062;-69
2021/05/22 05:12:03;;;;;;;10.02;1.20;;;12.80;88.50;;;;;;4972741;28;20422;-70
2021/05/22 05:14:29;;;;;;;8.40;0.80;;;12.80;88.30;;;;;;4974877;28;20382;-70
2021/05/22 05:16:55;;;;;;;7.65;0.90;;;12.90;88.10;;;;;;4990059;28;20128;-69
2021/05/22 05:19:23;;;;;;;4.28;0.80;;;12.90;88.20;;;;;;4988324;28;20133;-69
2021/05/22 05:21:48;;;;;;;8.55;1.48;;;13.00;88.30;;;;;;4990250;28;20092;-69
2021/05/22 05:24:14;;;;;;;5.60;0.90;;;13.00;88.00;;;;;;4990184;28;20042;-70
2021/05/22 05:26:40;;;;;;;11.07;3.30;;;13.10;88.10;;;;;;4991198;28;20026;-69
2021/05/22 05:29:05;;;;;;;7.90;2.53;;;13.10;88.10;;;;;;4989586;28;20528;-71
2021/05/22 05:31:31;;;;;;;5.00;0.90;;;13.20;88.00;;;;;;4989782;28;20069;-69
2021/05/22 05:33:57;;;;;;;10.95;2.72;;;13.30;88.10;;;;;;4989793;28;20038;-70
2021/05/22 05:36:22;;;;;;;4.68;2.10;;;13.30;87.80;;;;;;4990096;28;20026;-70
2021/05/22 05:38:48;;;;;;;4.93;1.02;;;13.50;87.60;;;;;;4991732;28;20544;-70
2021/05/22 05:41:13;;;;;;;4.28;0.90;;;13.70;87.00;;;;;;4990116;28;20129;-70
2021/05/22 05:43:54;;;;;;;4.07;0.90;;;14.00;86.50;;;;;;4989873;28;20113;-71
2021/05/22 05:46:20;;;;;;;5.88;1.00;;;14.30;85.90;;;;;;4972109;28;20038;-71
2021/05/22 05:48:46;;;;;;;6.90;1.10;;;14.60;85.10;;;;;;4972287;28;20085;-71
2021/05/22 05:51:11;;;;;;;3.95;0.95;;;14.90;84.00;;;;;;4989806;28;20495;-72
2021/05/22 05:53:39;;;;;;;4.22;0.85;;;14.90;83.00;;;;;;4991310;28;20107;-69
2021/05/22 05:56:04;;;;;;;6.38;1.25;;;14.80;82.50;;;;;;4988439;28;20133;-69
2021/05/22 05:58:30;;;;;;;6.43;0.88;;;15.00;82.70;;;;;;4988249;28;20042;-69
2021/05/22 06:00:56;;;;;;;8.23;1.30;;;15.30;81.50;;;;;;4988621;28;20034;-69
2021/05/22 06:03:31;;;;;;;5.88;0.73;;;15.30;80.40;;;;;;4989700;28;20092;-70
2021/05/22 06:05:57;;;;;;;6.93;1.00;;;15.30;80.60;;;;;;4971961;28;20524;-68
2021/05/22 06:08:24;;;;;;;5.82;0.98;;;15.50;79.70;;;;;;4991269;28;20026;-70
2021/05/22 06:10:52;;;;;;;3.50;0.98;;;15.50;79.50;;;;;;4989560;28;20089;-70
2021/05/22 06:13:33;;;;;;;10.23;3.00;;;15.50;78.30;;;;;;4989714;28;20030;-69
2021/05/22 06:16:04;;;;;;;4.13;1.60;;;15.70;77.90;;;;;;4989512;28;20035;-69
2021/05/22 06:18:32;;;;;;;9.32;1.33;;;15.60;77.70;;;;;;4989363;28;20053;-70
2021/05/22 06:20:58;;;;;;;5.93;1.65;;;15.30;77.20;;;;;;4989456;28;20019;-69
2021/05/22 06:23:24;;;;;;;3.08;0.88;;;15.40;77.70;;;;;;4973724;28;20345;-68
2021/05/22 06:25:50;;;;;;;3.47;0.90;;;15.30;77.50;;;;;;4989287;28;20133;-69
2021/05/22 06:28:17;;;;;;;3.80;0.65;;;15.20;77.60;;;;;;4989433;28;20054;-67
2021/05/22 06:30:42;;;;;;;4.47;1.40;;;15.20;77.80;;;;;;4989665;28;20039;-68
2021/05/22 06:33:08;;;;;;;7.10;0.93;;;15.30;77.80;;;;;;4989145;28;20076;-69
2021/05/22 06:35:34;;;;;;;3.67;0.77;;;15.30;77.50;;;;;;4990228;28;20069;-69
2021/05/22 06:38:01;;;;;;;11.05;1.20;;;15.10;77.50;;;;;;4989420;28;20049;-71
2021/05/22 06:40:28;;;;;;;7.60;1.08;;;15.10;77.70;;;;;;4972698;28;20030;-70
2021/05/22 06:42:54;;;;;;;4.82;0.80;;;14.80;77.80;;;;;;4992791;28;20116;-72
2021/05/22 06:45:22;;;;;;;4.43;0.85;;;14.80;78.20;;;;;;4993191;28;20045;-72
2021/05/22 06:47:49;;;;;;;7.57;1.45;;;14.80;78.50;;;;;;4994529;28;20027;-75
2021/05/22 06:50:15;;;;;;;7.85;1.08;;;14.80;78.60;;;;;;4992751;28;20046;-73
2021/05/22 06:52:41;;;;;;;5.00;0.70;;;15.00;78.60;;;;;;4990188;28;20057;-72
2021/05/22 06:55:07;;;;;;;3.55;0.90;;;15.00;78.70;;;;;;4992712;28;20110;-73
2021/05/22 06:57:33;;;;;;;5.93;1.55;;;15.00;78.60;;;;;;4992967;28;20054;-73
2021/05/22 06:59:59;;;;;;;8.43;1.05;;;15.00;78.60;;;;;;4992905;28;20023;-73
2021/05/22 07:02:25;;;;;;;5.13;0.90;;;15.00;77.70;;;;;;4994465;28;20046;-71
2021/05/22 07:04:50;;;;;;;4.95;1.25;;;14.90;78.10;;;;;;4992928;28;20113;-70
2021/05/22 07:07:16;;;;;;;3.45;0.98;;;14.80;78.40;;;;;;4992413;28;20070;-70
2021/05/22 07:09:42;;;;;;;7.38;1.33;;;14.80;78.40;;;;;;4950724;28;20031;-80
2021/05/22 07:12:10;;;;;;;5.40;1.00;;;14.80;80.10;;;;;;4955122;28;20287;-81
2021/05/22 07:14:36;;;;;;;5.72;0.93;;;14.90;80.50;;;;;;4957975;28;20105;-70
2021/05/22 07:17:02;;;;;;;4.95;0.73;;;14.80;78.80;;;;;;4956085;28;20461;-70
2021/05/22 07:19:27;;;;;;;6.35;1.27;;;14.70;78.90;;;;;;4985810;28;20045;-70
2021/05/22 07:21:54;;;;;;;6.47;1.02;;;14.70;79.00;;;;;;4992092;28;20038;-69
2021/05/22 07:24:21;;;;;;;13.38;1.67;;;14.70;79.10;;;;;;4992606;28;20459;-71
2021/05/22 07:26:48;;;;;;;6.85;1.48;;;14.70;79.50;;;;;;4993671;28;20041;-70
2021/05/22 07:29:14;;;;;;;7.45;1.40;;;14.70;79.60;;;;;;4991696;28;20422;-70
2021/05/22 07:31:42;;;;;;;6.25;1.08;;;14.60;79.50;;;;;;4991816;28;20043;-70
2021/05/22 07:34:09;;;;;;;5.30;1.00;;;14.60;79.70;;;;;;4992140;28;20337;-70
2021/05/22 07:36:35;;;;;;;5.13;0.80;;;14.70;79.80;;;;;;4991876;28;20046;-69
2021/05/22 07:39:03;;;;;;;4.88;1.10;;;14.70;79.80;;;;;;4974601;28;20034;-69
2021/05/22 07:41:29;;;;;;;3.50;0.60;;;14.80;79.70;;;;;;4993603;28;20018;-70
2021/05/22 07:43:55;;;;;;;7.53;1.20;;;15.10;79.70;;;;;;4990566;28;20049;-70
2021/05/22 07:46:21;;;;;;;15.75;1.35;;;15.40;79.10;;;;;;4991826;28;20138;-69
2021/05/22 07:48:46;;;;;;;1.95;0.77;;;15.40;78.70;;;;;;4991860;28;20114;-69
2021/05/22 07:51:14;;;;;;;7.38;1.08;;;15.50;78.30;;;;;;4990685;28;20521;-70
2021/05/22 07:53:40;;;;;;;8.60;1.58;;;15.60;78.40;;;;;;4992632;28;20550;-70
2021/05/22 07:56:06;;;;;;;3.13;1.10;;;15.70;78.60;;;;;;4990793;28;20401;-68
2021/05/22 07:58:32;;;;;;;8.18;1.10;;;15.80;78.00;;;;;;4991439;28;20467;-68
2021/05/22 08:00:57;;;;;;;3.63;0.93;;;15.80;78.20;;;;;;4973685;28;20420;-69
2021/05/22 08:03:23;;;;;;;3.45;1.08;;;15.80;77.90;;;;;;4990415;28;20505;-68
2021/05/22 08:05:49;;;;;;;5.60;1.08;;;16.20;77.60;;;;;;4993358;28;20033;-70
2021/05/22 08:08:14;;;;;;;3.15;0.80;;;16.40;77.20;;;;;;4991090;28;20050;-69
2021/05/22 08:10:40;;;;;;;9.80;1.00;;;16.80;76.10;;;;;;4991624;28;20035;-68
2021/05/22 08:13:09;;;;;;;3.35;1.25;;;17.30;76.50;;;;;;4990995;28;20120;-69
2021/05/22 08:15:35;;;;;;;4.25;0.80;;;17.60;75.20;;;;;;4991442;28;20403;-69
2021/05/22 08:18:00;;;;;;;4.35;1.13;;;18.20;73.30;;;;;;4991010;28;20121;-69
2021/05/22 08:20:26;;;;;;;4.47;1.58;;;18.20;72.10;;;;;;4992728;28;20455;-71
2021/05/22 08:22:52;;;;;;;5.57;0.98;;;17.90;71.00;;;;;;4991470;28;20086;-73
2021/05/22 08:25:17;;;;;;;4.20;0.80;;;17.60;71.70;;;;;;4990994;28;20041;-74
2021/05/22 08:27:43;;;;;;;6.13;1.02;;;17.80;71.60;;;;;;4970396;28;20113;-70
2021/05/22 08:30:11;;;;;;;4.50;0.90;;;17.70;71.60;;;;;;4990024;28;20097;-71
2021/05/22 08:32:38;;;;;;;5.32;0.80;;;17.70;71.10;;;;;;4992776;28;20112;-70
2021/05/22 08:35:05;;;;;;;5.50;1.33;;;17.30;70.40;;;;;;4989989;28;20053;-72
2021/05/22 08:37:32;;;;;;;6.57;0.90;;;17.00;71.00;;;;;;4991033;28;20030;-71
2021/05/22 08:39:58;;;;;;;7.10;1.23;;;16.80;71.30;;;;;;4990867;28;20486;-70
2021/05/22 08:42:26;;;;;;;4.80;1.00;;;16.50;71.80;;;;;;4990596;28;20078;-72
2021/05/22 08:44:53;;;;;;;6.82;1.10;;;16.30;72.20;;;;;;4992819;28;20027;-72
2021/05/22 08:47:20;;;;;;;4.20;0.80;;;16.10;73.70;;;;;;4990577;28;20495;-70
2021/05/22 08:49:46;;;;;;;3.75;0.80;;;16.00;74.40;;;;;;4990754;28;20049;-70
2021/05/22 08:52:17;;;;;;;5.43;1.08;;;15.90;74.60;;;;;;4990035;28;20034;-70
2021/05/22 08:54:44;;;;;;;3.13;1.20;;;15.80;74.70;;;;;;4990283;28;20041;-69
2021/05/22 08:57:11;;;;;;;5.68;1.48;;;15.80;75.80;;;;;;4985257;28;20556;-70
2021/05/22 08:59:41;;;;;;;3.97;0.85;;;15.70;75.50;;;;;;4971050;28;20037;-70
2021/05/22 09:02:08;;;;;;;11.20;1.33;;;15.50;75.10;;;;;;4971027;28;20039;-71
2021/05/22 09:05:08;;;;;;;2.90;0.68;;;15.40;75.90;;;;;;4969974;28;20039;-71
2021/05/22 09:07:39;;;;;;;7.43;1.05;;;15.40;75.70;;;;;;4985550;28;20049;-71
2021/05/22 09:10:09;;;;;;;2.63;0.82;;;15.30;75.20;;;;;;4971047;28;20475;-71
2021/05/22 09:12:40;;;;;;;5.57;1.52;;;15.30;75.60;;;;;;4970797;28;20059;-72
2021/05/22 09:15:12;;;;;;;4.10;0.60;;;15.20;76.00;;;;;;4971008;28;20023;-70
2021/05/22 09:17:46;;;;;;;2.80;0.63;;;15.20;76.10;;;;;;4972140;28;20037;-68
2021/05/22 09:20:20;;;;;;;5.70;0.60;;;15.20;75.10;;;;;;4970783;28;20081;-70
2021/05/22 09:23:06;;;;;;;3.03;0.95;;;15.10;75.50;;;;;;4970961;28;20046;-70
2021/05/22 09:25:39;;;;;;;1.00;0.45;;;15.10;76.10;;;;;;4970439;28;20034;-70
2021/05/22 09:28:06;;;;;;;3.47;0.70;;;15.10;76.20;;;;;;4970327;28;20047;-70
2021/05/22 09:30:33;;;;;;;4.45;0.75;;;15.10;76.50;;;;;;4970350;28;20031;-72
2021/05/22 09:33:00;;;;;;;3.60;0.73;;;15.20;76.50;;;;;;4970528;28;20026;-71
2021/05/22 09:35:27;;;;;;;1.88;0.75;;;15.40;76.60;;;;;;4987114;28;20633;-76
2021/05/22 09:38:01;;;;;;;4.80;0.63;;;15.40;75.80;;;;;;4985808;28;20123;-69
2021/05/22 09:40:36;;;;;;;4.80;0.80;;;15.40;76.50;;;;;;4970362;28;20041;-70
2021/05/22 09:43:07;;;;;;;4.35;0.43;;;15.30;76.60;;;;;;4985114;28;20030;-72
2021/05/22 09:45:44;;;;;;;1.08;0.40;;;15.30;76.80;;;;;;4970792;28;20038;-70
2021/05/22 09:48:17;;;;;;;3.38;0.63;;;15.20;77.20;;;;;;4970310;28;20027;-72
2021/05/22 09:50:45;;;;;;;4.90;1.08;;;15.10;77.30;;;;;;4972324;28;20074;-72
2021/05/22 09:53:19;;;;;;;5.70;0.90;;;15.10;77.30;;;;;;4970407;28;20054;-72
2021/05/22 09:56:09;;;;;;;7.65;1.20;;;15.10;77.70;;;;;;4970425;28;20054;-71
2021/05/22 09:58:36;;;;;;;3.88;0.85;;;15.10;77.90;;;;;;4969580;28;20539;-71
2021/05/22 10:01:02;;;;;;;3.90;0.93;;;15.00;78.60;;;;;;4970472;28;20412;-70
2021/05/22 10:03:28;;;;;;;5.20;1.08;;;15.00;78.70;;;;;;4970759;28;20089;-73
2021/05/22 10:05:53;;;;;;;7.18;1.02;;;15.10;78.90;;;;;;4971918;28;20023;-72
2021/05/22 10:08:19;;;;;;;4.35;1.20;;;15.00;79.10;;;;;;4970512;28;20124;-72
2021/05/22 10:10:50;;;;;;;4.80;1.23;;;15.00;79.20;;;;;;4970565;28;20125;-72
2021/05/22 10:13:19;;;;;;;4.07;0.98;;;15.00;79.80;;;;;;4970366;28;20078;-71
2021/05/22 10:15:48;;;;;;;4.55;0.75;;;15.00;80.10;;;;;;4971914;28;20038;-72
2021/05/22 10:18:16;;;;;;;4.10;0.60;;;15.10;80.50;;;;;;4973761;28;20130;-73
2021/05/22 10:20:42;;;;;;;;;;;15.10;81.90;;;;;;4975889;28;20030;-73
2021/05/22 10:23:09;;;;;;;3.35;0.68;;;15.10;81.70;;;;;;4974254;28;20035;-73
2021/05/22 10:25:35;;;;;;;7.55;1.90;;;15.00;81.50;;;;;;4989330;28;20588;-77
2021/05/22 10:28:03;;;;;;;8.27;1.25;;;15.00;82.20;;;;;;4973901;28;20460;-76
2021/05/22 10:30:29;;;;;;;11.35;1.17;;;14.90;83.10;;;;;;4973526;28;20031;-75
2021/05/22 10:33:00;;;;;;;3.42;1.10;;;14.90;83.40;;;;;;4975387;28;20041;-76
2021/05/22 10:35:26;;;;;;;5.43;1.00;;;14.90;84.10;;;;;;4974176;28;20042;-77
2021/05/22 10:37:53;;;;;;;3.50;0.93;;;14.90;84.40;;;;;;4972563;28;20042;-79
2021/05/22 10:40:42;;;;;;;7.87;0.93;;;14.90;85.20;;;;;;4973858;28;20085;-70
2021/05/22 10:43:08;;;;;;;4.40;0.80;;;15.00;84.90;;;;;;4972797;28;20137;-74
2021/05/22 10:45:37;;;;;;;3.13;0.98;;;14.90;84.70;;;;;;4974059;28;20491;-72
2021/05/22 10:48:05;;;;;;;2.15;0.63;;;14.90;84.70;;;;;;4973300;28;20433;-71
2021/05/22 10:50:36;;;;;;;2.10;0.57;;;14.90;84.10;;;;;;4975304;28;20058;-76
2021/05/22 10:53:35;;;;;;;1.83;0.60;;;14.90;82.90;;;;;;4973035;28;20034;-72
2021/05/22 10:56:17;;;;;;;4.82;0.88;;;14.90;83.70;;;;;;4972695;28;20046;-72
2021/05/22 10:58:58;;;;;;;2.50;1.02;;;14.90;83.30;;;;;;4992913;28;20043;-69
2021/05/22 11:01:23;;;;;;;3.40;1.00;;;14.90;83.80;;;;;;4992993;28;20045;-71
2021/05/22 11:06:46;;;;;;;1.35;0.50;;;14.80;83.70;;;;;;4992447;28;20376;-71
2021/05/22 11:09:37;;;;;;;1.30;0.50;;;14.70;83.70;;;;;;4992887;28;20022;-70
2021/05/22 11:12:15;;;;;;;2.33;0.40;;;14.80;83.60;;;;;;4992100;28;20030;-70
2021/05/22 11:14:52;;;;;;;2.65;0.52;;;14.60;83.90;;;;;;4994166;28;20022;-70
2021/05/22 11:17:22;;;;;;;1.77;0.70;;;14.60;83.90;;;;;;4992541;28;20053;-71
2021/05/22 11:20:00;;;;;;;4.13;0.43;;;14.60;84.30;;;;;;4992685;28;20042;-70
2021/05/22 11:22:27;;;;;;;;;;;14.60;84.30;;;;;;4992622;28;20042;-72
2021/05/22 11:25:10;;;;;;;1.63;0.50;;;14.60;84.70;;;;;;4974671;28;19922;-73
2021/05/22 11:27:50;;;;;;;1.55;0.70;;;14.70;84.70;;;;;;4989572;28;20061;-73
2021/05/22 11:30:44;;;;;;;1.10;0.40;;;14.80;85.70;;;;;;4993365;28;20090;-79
2021/05/22 11:34:00;;;;;;;1.27;0.57;;;14.70;86.30;;;;;;4995902;28;20030;-85
2021/05/22 11:36:25;;;;;;;3.13;0.50;;;14.80;85.50;;;;;;4974907;28;20355;-79
2021/05/22 11:38:53;;;;;;;5.13;0.50;;;15.00;85.30;;;;;;4994592;28;20041;-86
2021/05/22 11:41:30;;;;;;;2.15;0.70;;;15.10;84.80;;;;;;4992882;28;20034;-82
2021/05/22 11:44:05;;;;;;;2.60;0.52;;;15.00;84.50;;;;;;4991428;28;20121;-84
2021/05/22 11:46:31;;;;;;;2.05;0.50;;;15.00;84.90;;;;;;4992848;28;20409;-83
2021/05/22 11:48:56;;;;;;;2.58;0.40;;;15.00;85.30;;;;;;4992071;28;20035;-82
2021/05/22 11:51:32;;;;;;;4.45;0.90;;;14.90;85.10;;;;;;4992832;28;20038;-83
2021/05/22 11:54:04;;;;;;;5.35;0.85;;;14.80;85.20;;;;;;4992522;28;20046;-84
2021/05/22 11:56:33;;;;;;;2.90;0.60;;;14.70;85.60;;;;;;4992449;28;20136;-82
2021/05/22 11:59:00;;;;;;;2.38;0.43;;;14.80;86.10;;;;;;4991947;28;20129;-83
2021/05/22 12:01:32;;;;;;;3.72;0.45;;;14.60;85.40;;;;;;4992236;28;20122;-82
2021/05/22 12:04:02;;;;;;;1.67;0.77;;;14.60;85.70;;;;;;4991476;28;20033;-82
2021/05/22 12:06:40;;;;;;;1.88;0.70;;;14.50;85.90;;;;;;4991807;28;20547;-80
2021/05/22 12:09:21;;;;;;;;;;;14.50;86.90;;;;;;4991580;28;20125;-82
2021/05/22 12:11:53;;;;;;;1.33;0.60;;;14.50;86.60;;;;;;4993367;28;19905;-81
2021/05/22 12:14:19;;;;;;;1.15;0.40;;;14.50;86.80;;;;;;4991634;28;20067;-83
2021/05/22 12:16:45;;;;;;;1.33;0.60;;;14.50;86.70;;;;;;4990920;28;20589;-80
2021/05/22 12:19:17;;;;;;;1.75;1.05;;;14.50;87.30;;;;;;4991563;28;20050;-81
2021/05/22 12:21:48;;;;;;;2.20;0.73;;;14.50;87.70;;;;;;4990504;28;20124;-82
2021/05/22 12:24:14;;;;;;;3.17;0.68;;;14.50;88.60;;;;;;4990968;28;20108;-82
2021/05/22 12:26:48;;;;;;;2.53;0.70;;;14.60;88.70;;;;;;4993310;28;20023;-81
2021/05/22 12:29:13;;;;;;;1.25;0.55;;;14.60;89.10;;;;;;4990720;28;20037;-83
2021/05/22 12:31:47;;;;;;;2.40;0.45;;;14.50;90.00;;;;;;4991281;28;20030;-82
2021/05/22 12:34:12;;;;;;;1.45;0.50;;;14.50;90.40;;;;;;4991523;28;20030;-82
2021/05/22 12:36:56;;;;;;;1.20;0.70;;;14.60;90.80;;;;;;4991318;28;20022;-82
2021/05/22 12:39:22;;;;;;;3.22;0.82;;;14.50;90.80;;;;;;4991359;28;20034;-83
2021/05/22 12:41:47;;;;;;;1.92;0.77;;;14.40;91.40;;;;;;4992334;28;20023;-82
2021/05/22 12:44:21;;;;;;;3.97;0.88;;;14.30;91.70;;;;;;4990400;28;20093;-82
2021/05/22 12:46:58;;;;;;;1.88;0.63;;;14.40;91.50;;;;;;4990938;28;20042;-83
2021/05/22 12:49:31;;;;;;;1.33;0.60;;;14.50;91.70;;;;;;4991134;28;20038;-82
2021/05/22 12:52:04;;;;;;;2.38;0.57;;;14.60;91.60;;;;;;4991409;28;20049;-80
2021/05/22 12:54:43;;;;;;;4.50;0.88;;;14.70;91.90;;;;;;4989547;28;20027;-83
2021/05/22 12:57:11;;;;;;;1.55;0.63;;;14.80;91.30;;;;;;4989929;28;20038;-82